createdAt,value
2022-09-24T00:03:21.430Z,5.45
2022-09-24T00:08:22.977Z,5.45
2022-09-24T00:13:24.480Z,5.78
2022-09-24T00:18:26.040Z,5.20
2022-09-24T00:23:27.638Z,5.22
2022-09-24T00:28:29.988Z,5.43
2022-09-24T00:33:33.254Z,5.20
2022-09-24T00:38:35.103Z,5.40
2022-09-24T00:43:39.062Z,5.38
2022-09-24T00:48:42.834Z,5.75
2022-09-24T00:53:48.290Z,5.60
2022-09-24T00:58:55.053Z,5.55
2022-09-24T01:03:58.114Z,5.55
2022-09-24T01:09:00.204Z,5.32
2022-09-24T01:14:13.747Z,5.50
2022-09-24T01:19:24.242Z,5.65
2022-09-24T01:24:44.881Z,5.30
2022-09-24T01:29:56.004Z,5.93
2022-09-24T01:35:07.537Z,5.18
2022-09-24T01:40:11.824Z,5.65
2022-09-24T01:45:15.372Z,5.85
2022-09-24T01:50:19.462Z,6.13
2022-09-24T01:55:25.265Z,6.45
2022-09-24T02:00:27.161Z,6.22
2022-09-24T02:05:41.696Z,6.85
2022-09-24T02:10:56.383Z,6.43
2022-09-24T02:16:03.108Z,6.35
2022-09-24T02:21:09.728Z,5.75
2022-09-24T02:26:11.465Z,5.75
2022-09-24T02:31:36.500Z,5.68
2022-09-24T02:36:41.849Z,5.82
2022-09-24T02:41:47.750Z,6.57
2022-09-24T02:46:50.877Z,6.88
2022-09-24T02:51:52.534Z,6.60
2022-09-24T02:56:54.204Z,6.00
2022-09-24T03:01:56.044Z,5.85
2022-09-24T03:06:57.779Z,6.00
2022-09-24T03:12:00.582Z,5.88
2022-09-24T03:17:02.135Z,5.57
2022-09-24T03:22:03.624Z,5.45
2022-09-24T03:27:05.173Z,5.53
2022-09-24T03:32:06.894Z,5.18
2022-09-24T03:37:08.700Z,5.30
2022-09-24T03:42:10.700Z,5.20
2022-09-24T03:47:12.211Z,4.72
2022-09-24T03:52:13.737Z,5.75
2022-09-24T03:57:15.308Z,8.45
2022-09-24T04:02:16.893Z,9.70
2022-09-24T04:07:18.709Z,7.30
2022-09-24T04:12:20.883Z,6.55
2022-09-24T04:17:22.384Z,6.38
2022-09-24T04:22:25.140Z,5.70
2022-09-24T04:27:26.645Z,9.07
2022-09-24T04:32:28.112Z,7.40
2022-09-24T04:37:29.601Z,9.85
2022-09-24T04:42:31.732Z,7.38
2022-09-24T04:47:33.857Z,6.00
2022-09-24T04:52:35.566Z,6.53
2022-09-24T04:57:37.086Z,6.40
2022-09-24T05:02:38.648Z,6.68
2022-09-24T05:07:41.724Z,8.05
2022-09-24T05:12:43.236Z,8.13
2022-09-24T05:17:45.318Z,8.95
2022-09-24T05:22:49.514Z,6.93
2022-09-24T05:27:55.644Z,7.03
2022-09-24T05:32:57.268Z,6.47
2022-09-24T05:38:01.015Z,5.95
2022-09-24T05:43:03.694Z,6.75
2022-09-24T05:48:05.761Z,6.22
2022-09-24T05:53:07.580Z,7.00
2022-09-24T05:58:11.104Z,6.35
2022-09-24T06:03:14.900Z,6.32
2022-09-24T06:08:17.715Z,7.05
2022-09-24T06:13:20.806Z,6.90
2022-09-24T06:18:22.381Z,6.78
2022-09-24T06:23:24.309Z,6.28
2022-09-24T06:28:25.836Z,7.00
2022-09-24T06:33:28.584Z,7.35
2022-09-24T06:38:30.789Z,6.82
2022-09-24T06:43:33.432Z,7.05
2022-09-24T06:48:36.195Z,8.77
2022-09-24T06:53:38.442Z,7.25
2022-09-24T06:58:40.021Z,6.82
2022-09-24T07:03:41.723Z,7.80
2022-09-24T07:08:43.260Z,7.63
2022-09-24T07:13:44.742Z,7.57
2022-09-24T07:18:46.215Z,7.25
2022-09-24T07:23:47.873Z,6.78
2022-09-24T07:28:51.764Z,6.55
2022-09-24T07:33:56.391Z,4.97
2022-09-24T07:38:58.466Z,5.32
2022-09-24T07:44:00.547Z,5.45
2022-09-24T07:49:02.082Z,5.05
2022-09-24T07:54:03.766Z,5.45
2022-09-24T07:59:11.175Z,5.50
2022-09-24T08:04:12.779Z,5.55
2022-09-24T08:09:16.847Z,5.57
2022-09-24T08:14:18.337Z,5.82
2022-09-24T08:19:19.894Z,6.18
2022-09-24T08:24:23.848Z,5.30
2022-09-24T08:29:25.374Z,5.82
2022-09-24T08:34:26.941Z,4.82
2022-09-24T08:39:28.463Z,4.70
2022-09-24T08:44:57.028Z,5.38
2022-09-24T08:50:08.092Z,5.45
2022-09-24T08:55:22.356Z,6.28
2022-09-24T09:00:24.029Z,6.72
2022-09-24T09:05:37.986Z,5.72
2022-09-24T09:10:41.594Z,5.60
2022-09-24T09:15:50.412Z,6.28
2022-09-24T09:20:52.598Z,5.68
2022-09-24T09:25:59.739Z,6.57
2022-09-24T09:31:25.412Z,6.32
2022-09-24T09:36:38.140Z,6.85
2022-09-24T09:41:49.531Z,6.85
2022-09-24T09:47:19.074Z,6.97
2022-09-24T09:52:24.721Z,6.65
2022-09-24T09:57:26.396Z,7.50
2022-09-24T10:02:31.550Z,7.55
2022-09-24T10:07:44.789Z,7.53
2022-09-24T10:12:47.204Z,6.78
2022-09-24T10:17:52.356Z,6.97
2022-09-24T10:23:03.336Z,6.85
2022-09-24T10:28:28.297Z,6.78
2022-09-24T10:33:38.595Z,6.50
2022-09-24T10:38:40.163Z,6.43
2022-09-24T10:43:51.105Z,21.23
2022-09-24T10:49:15.210Z,8.30
2022-09-24T10:54:27.916Z,9.80
2022-09-24T10:59:42.867Z,12.43
2022-09-24T11:04:47.001Z,17.00
2022-09-24T11:10:01.016Z,6.70
2022-09-24T11:15:20.325Z,4.95
2022-09-24T11:20:32.135Z,4.43
2022-09-24T11:25:48.548Z,4.40
2022-09-24T11:31:14.523Z,4.63
2022-09-24T11:36:34.873Z,4.90
2022-09-24T11:41:57.687Z,4.00
2022-09-24T11:47:16.618Z,3.45
2022-09-24T11:52:27.204Z,3.77
2022-09-24T11:57:31.804Z,3.45
2022-09-24T12:02:40.525Z,4.25
2022-09-24T12:07:53.215Z,3.70
2022-09-24T12:13:04.215Z,4.20
2022-09-24T12:18:21.271Z,4.30
2022-09-24T12:23:29.856Z,3.70
2022-09-24T12:28:58.165Z,4.20
2022-09-24T12:34:21.371Z,3.47
2022-09-24T12:39:28.128Z,4.35
2022-09-24T12:44:54.461Z,3.83
2022-09-24T12:49:59.288Z,3.67
2022-09-24T12:55:03.314Z,3.38
2022-09-24T13:00:47.246Z,2.80
2022-09-24T13:05:48.786Z,2.40
2022-09-24T13:11:05.911Z,2.05
2022-09-24T13:16:18.447Z,2.28
2022-09-24T13:21:26.044Z,1.98
2022-09-24T13:26:36.052Z,2.20
2022-09-24T13:31:47.639Z,2.40
2022-09-24T13:37:32.131Z,1.95
2022-09-24T13:42:46.648Z,2.13
2022-09-24T13:47:53.210Z,2.45
2022-09-24T13:53:07.614Z,2.00
2022-09-24T13:58:34.019Z,2.20
2022-09-24T14:03:37.099Z,1.80
2022-09-24T14:08:42.483Z,1.90
2022-09-24T14:13:47.226Z,2.13
2022-09-24T14:18:48.976Z,2.50
2022-09-24T14:24:00.000Z,1.80
2022-09-24T14:29:08.748Z,2.40
2022-09-24T14:34:25.083Z,2.22
2022-09-24T14:39:29.531Z,2.20
2022-09-24T14:44:31.126Z,2.22
2022-09-24T14:49:43.675Z,2.30
2022-09-24T14:54:45.303Z,2.20
2022-09-24T14:59:47.439Z,2.40
2022-09-24T15:04:53.250Z,2.80
2022-09-24T15:09:57.192Z,2.50
2022-09-24T15:15:25.048Z,2.60
2022-09-24T15:20:26.565Z,2.80
2022-09-24T15:25:28.903Z,2.60
2022-09-24T15:30:30.442Z,2.80
2022-09-24T15:35:33.051Z,2.40
2022-09-24T15:40:36.538Z,3.10
2022-09-24T15:45:38.191Z,2.90
2022-09-24T15:50:40.803Z,3.35
2022-09-24T15:55:42.863Z,3.20
2022-09-24T16:00:44.955Z,3.10
2022-09-24T16:05:47.778Z,3.60
2022-09-24T16:10:50.276Z,3.63
2022-09-24T16:15:51.858Z,3.60
2022-09-24T16:20:56.178Z,3.40
2022-09-24T16:25:59.844Z,4.13
2022-09-24T16:31:07.128Z,4.72
2022-09-24T16:36:09.377Z,4.15
2022-09-24T16:41:10.900Z,3.70
2022-09-24T16:46:15.258Z,3.58
2022-09-24T16:51:21.613Z,3.60
2022-09-24T16:56:23.857Z,3.80
2022-09-24T17:01:25.494Z,3.97
2022-09-24T17:06:31.332Z,3.78
2022-09-24T17:11:33.652Z,4.82
2022-09-24T17:16:35.143Z,5.40
2022-09-24T17:21:38.621Z,5.35
2022-09-24T17:26:40.174Z,5.60
2022-09-24T17:31:41.767Z,6.20
2022-09-24T17:36:43.367Z,6.05
2022-09-24T17:41:45.094Z,7.38
2022-09-24T17:46:46.805Z,6.20
2022-09-24T17:51:49.319Z,6.68
2022-09-24T17:56:50.853Z,6.35
2022-09-24T18:01:52.465Z,5.50
2022-09-24T18:06:54.023Z,4.70
2022-09-24T18:11:56.900Z,4.53
2022-09-24T18:16:59.817Z,4.57
2022-09-24T18:22:05.977Z,5.50
2022-09-24T18:27:07.520Z,5.07
2022-09-24T18:32:09.005Z,5.03
2022-09-24T18:37:10.510Z,4.82
2022-09-24T18:42:11.980Z,4.32
2022-09-24T18:47:15.925Z,5.05
2022-09-24T18:52:17.457Z,4.60
2022-09-24T18:57:19.020Z,4.43
2022-09-24T19:02:25.153Z,5.05
2022-09-24T19:07:26.850Z,4.03
2022-09-24T19:12:29.784Z,4.68
2022-09-24T19:17:35.227Z,3.85
2022-09-24T19:22:37.201Z,3.30
2022-09-24T19:27:40.284Z,3.85
2022-09-24T19:32:41.785Z,3.88
2022-09-24T19:37:43.337Z,4.07
2022-09-24T19:42:45.108Z,3.60
2022-09-24T19:47:46.616Z,3.42
2022-09-24T19:52:48.758Z,3.90
2022-09-24T19:57:50.319Z,4.82
2022-09-24T20:02:52.319Z,4.22
2022-09-24T20:07:53.896Z,4.90
2022-09-24T20:12:55.492Z,4.60
2022-09-24T20:17:57.066Z,4.50
2022-09-24T20:22:59.500Z,3.95
2022-09-24T20:28:01.268Z,5.22
2022-09-24T20:33:02.804Z,4.38
2022-09-24T20:38:05.091Z,4.55
2022-09-24T20:43:06.640Z,3.88
2022-09-24T20:48:08.171Z,3.70
2022-09-24T20:53:09.709Z,3.90
2022-09-24T20:58:11.351Z,4.13
2022-09-24T21:03:39.325Z,4.32
2022-09-24T21:08:36.065Z,3.97
2022-09-24T21:13:42.853Z,4.40
2022-09-24T21:18:45.023Z,4.70
2022-09-24T21:23:49.227Z,5.15
2022-09-24T21:28:53.539Z,4.63
2022-09-24T21:33:56.028Z,5.10
2022-09-24T21:39:00.142Z,4.60
2022-09-24T21:44:03.146Z,4.18
2022-09-24T21:49:04.752Z,4.13
2022-09-24T21:54:08.591Z,4.68
2022-09-24T21:59:28.991Z,4.10
2022-09-24T22:04:33.329Z,3.65
2022-09-24T22:09:35.061Z,4.80
2022-09-24T22:14:37.222Z,4.03
2022-09-24T22:19:38.751Z,4.03
2022-09-24T22:24:40.241Z,4.55
2022-09-24T22:29:42.552Z,4.38
2022-09-24T22:35:02.608Z,4.40
2022-09-24T22:45:06.487Z,3.60
2022-09-24T22:50:08.450Z,3.13
2022-09-24T22:55:09.973Z,3.47
2022-09-24T23:00:13.119Z,3.60
2022-09-24T23:05:14.774Z,3.85
2022-09-24T23:10:16.480Z,3.53
2022-09-24T23:15:20.325Z,3.92
2022-09-24T23:20:22.722Z,3.90
2022-09-24T23:25:24.214Z,4.18
2022-09-24T23:30:26.169Z,4.78
2022-09-24T23:35:27.708Z,3.70
2022-09-24T23:40:29.799Z,3.72
2022-09-24T23:45:31.349Z,3.67
2022-09-24T23:50:32.870Z,4.80
2022-09-24T23:55:34.381Z,5.70
